Ana Sayfa
METAR-TAF:

METAR-TAF

Havaalanları :

Eskişehir Hava Üssü

Eskişehir, Türkiye

Enlem: 39-47N, Boylam: 030-34E, yükseklik: 785 m

METAR: eksik

Saat: 15:42 (12:42 UTC)

Tahmin

Rapor saat 10:40 UTC de 2 saat ve 2 dakika önce yapıldı.
Ayın 22'si saat 12 UTC'den ayın 22'si saat 21 UTC'ye kadar geçerli Tahmin
Rüzgar doğudan 8 kt
Görüş mesafesi 10 km veya daha fazla
1500 m altında bulut yok ve kümülonimbus yok
Dönüşüyor
ayın 22'si saat 12 UTC'den ayın 22'si saat 14 UTC'ye kadar
4000 ft yükseklikte az bulutlu
10000 ft yükseklikte parçalı bulutlu
20000 ft yükseklikte parçalı çok bulutlu

TAF: LTBI 221040Z 2212/2221 10008KT CAVOK BECMG 2212/2214 FEW040 SCT100 BKN200

4.000'den fazla havaalanı için hava durumu gözlemleri ve tahminleri (METAR ve TAF raporları).

Kullanılabilir istasyonlar harita üzerinde sarı ve kırmızı noktalarla gösterilir.

İstasyonun adını görmek için fareyi noktanın üzerinde gezdirin.

Sonrasında hava gözlem ve tahminlerini görmek için tıklayın.

Haritayı değiştirmek için: yaklaştırmak için siyah artı işaretli yeşil düğmeye ve uzaklaştırmak için de eksi işaretli düğmeye hızla tıklayın; bitişik haritalar için yeşil okları kullanın.


METAR-TAF: